sensor_id;sensor_type;location;lat;lon;timestamp;P1;durP1;ratioP1;P2;durP2;ratioP2
52015;SDS011;38032;53.326;6.472;2022-11-20T00:01:43;12.07;;;8.90;;
52015;SDS011;38032;53.326;6.472;2022-11-20T00:04:10;14.75;;;9.00;;
52015;SDS011;38032;53.326;6.472;2022-11-20T00:06:37;13.75;;;9.23;;
52015;SDS011;38032;53.326;6.472;2022-11-20T00:09:03;12.93;;;8.38;;
52015;SDS011;38032;53.326;6.472;2022-11-20T00:11:30;15.10;;;8.55;;
52015;SDS011;38032;53.326;6.472;2022-11-20T00:13:58;12.25;;;8.45;;
52015;SDS011;38032;53.326;6.472;2022-11-20T00:16:26;13.70;;;8.75;;
52015;SDS011;38032;53.326;6.472;2022-11-20T00:18:53;14.60;;;8.98;;
52015;SDS011;38032;53.326;6.472;2022-11-20T00:21:20;12.07;;;8.27;;
52015;SDS011;38032;53.326;6.472;2022-11-20T00:23:48;11.80;;;8.10;;
52015;SDS011;38032;53.326;6.472;2022-11-20T00:26:16;14.20;;;8.82;;
52015;SDS011;38032;53.326;6.472;2022-11-20T00:28:44;12.45;;;8.40;;
52015;SDS011;38032;53.326;6.472;2022-11-20T00:31:15;13.40;;;8.50;;
52015;SDS011;38032;53.326;6.472;2022-11-20T00:33:42;11.18;;;7.57;;
52015;SDS011;38032;53.326;6.472;2022-11-20T00:36:09;12.55;;;8.60;;
52015;SDS011;38032;53.326;6.472;2022-11-20T00:38:37;13.43;;;8.02;;
52015;SDS011;38032;53.326;6.472;2022-11-20T00:41:04;15.77;;;9.25;;
52015;SDS011;38032;53.326;6.472;2022-11-20T00:43:32;13.00;;;8.30;;
52015;SDS011;38032;53.326;6.472;2022-11-20T00:45:59;13.50;;;8.07;;
52015;SDS011;38032;53.326;6.472;2022-11-20T00:48:26;13.30;;;7.40;;
52015;SDS011;38032;53.326;6.472;2022-11-20T00:50:52;11.93;;;7.60;;
52015;SDS011;38032;53.326;6.472;2022-11-20T00:53:19;11.40;;;7.82;;
52015;SDS011;38032;53.326;6.472;2022-11-20T00:55:52;11.90;;;7.75;;
52015;SDS011;38032;53.326;6.472;2022-11-20T00:58:20;12.23;;;7.80;;
52015;SDS011;38032;53.326;6.472;2022-11-20T01:00:46;12.23;;;8.07;;
52015;SDS011;38032;53.326;6.472;2022-11-20T01:03:12;12.65;;;7.97;;
52015;SDS011;38032;53.326;6.472;2022-11-20T01:05:38;12.93;;;7.60;;
52015;SDS011;38032;53.326;6.472;2022-11-20T01:08:04;12.18;;;7.63;;
52015;SDS011;38032;53.326;6.472;2022-11-20T01:10:30;11.85;;;7.93;;
52015;SDS011;38032;53.326;6.472;2022-11-20T01:12:55;11.05;;;7.40;;
52015;SDS011;38032;53.326;6.472;2022-11-20T01:15:40;11.43;;;8.00;;
52015;SDS011;38032;53.326;6.472;2022-11-20T01:18:06;12.70;;;8.02;;
52015;SDS011;38032;53.326;6.472;2022-11-20T01:20:35;11.50;;;8.15;;
52015;SDS011;38032;53.326;6.472;2022-11-20T01:23:01;12.40;;;7.63;;
52015;SDS011;38032;53.326;6.472;2022-11-20T01:25:28;12.23;;;8.00;;
52015;SDS011;38032;53.326;6.472;2022-11-20T01:27:54;12.30;;;8.43;;
52015;SDS011;38032;53.326;6.472;2022-11-20T01:30:19;11.90;;;7.55;;
52015;SDS011;38032;53.326;6.472;2022-11-20T01:32:45;12.93;;;8.15;;
52015;SDS011;38032;53.326;6.472;2022-11-20T01:35:11;11.75;;;8.10;;
52015;SDS011;38032;53.326;6.472;2022-11-20T01:37:37;11.77;;;7.95;;
52015;SDS011;38032;53.326;6.472;2022-11-20T01:40:03;10.95;;;8.05;;
52015;SDS011;38032;53.326;6.472;2022-11-20T01:42:29;13.05;;;8.27;;
52015;SDS011;38032;53.326;6.472;2022-11-20T01:48:11;15.85;;;8.93;;
52015;SDS011;38032;53.326;6.472;2022-11-20T01:50:37;14.80;;;9.02;;
52015;SDS011;38032;53.326;6.472;2022-11-20T01:53:05;12.85;;;8.65;;
52015;SDS011;38032;53.326;6.472;2022-11-20T01:55:34;15.60;;;9.23;;
52015;SDS011;38032;53.326;6.472;2022-11-20T01:58:05;14.00;;;9.27;;
52015;SDS011;38032;53.326;6.472;2022-11-20T02:00:31;13.43;;;9.10;;
52015;SDS011;38032;53.326;6.472;2022-11-20T02:02:58;14.98;;;9.43;;
52015;SDS011;38032;53.326;6.472;2022-11-20T02:05:31;15.57;;;9.38;;
52015;SDS011;38032;53.326;6.472;2022-11-20T02:08:00;14.48;;;9.65;;
52015;SDS011;38032;53.326;6.472;2022-11-20T02:10:29;15.25;;;9.50;;
52015;SDS011;38032;53.326;6.472;2022-11-20T02:12:56;14.13;;;9.05;;
52015;SDS011;38032;53.326;6.472;2022-11-20T02:15:40;14.40;;;9.60;;
52015;SDS011;38032;53.326;6.472;2022-11-20T02:18:07;13.32;;;9.18;;
52015;SDS011;38032;53.326;6.472;2022-11-20T02:20:34;15.23;;;9.23;;
52015;SDS011;38032;53.326;6.472;2022-11-20T02:25:27;15.50;;;9.73;;
52015;SDS011;38032;53.326;6.472;2022-11-20T02:27:55;12.15;;;8.70;;
52015;SDS011;38032;53.326;6.472;2022-11-20T02:30:21;16.20;;;9.88;;
52015;SDS011;38032;53.326;6.472;2022-11-20T02:32:47;16.23;;;10.10;;
52015;SDS011;38032;53.326;6.472;2022-11-20T02:37:46;14.65;;;9.40;;
52015;SDS011;38032;53.326;6.472;2022-11-20T02:40:15;13.60;;;9.50;;
52015;SDS011;38032;53.326;6.472;2022-11-20T02:42:41;13.95;;;9.07;;
52015;SDS011;38032;53.326;6.472;2022-11-20T02:45:07;13.63;;;9.18;;
52015;SDS011;38032;53.326;6.472;2022-11-20T02:47:33;15.98;;;9.95;;
52015;SDS011;38032;53.326;6.472;2022-11-20T02:49:59;14.68;;;9.82;;
52015;SDS011;38032;53.326;6.472;2022-11-20T02:52:25;13.27;;;9.18;;
52015;SDS011;38032;53.326;6.472;2022-11-20T02:54:51;14.75;;;9.52;;
52015;SDS011;38032;53.326;6.472;2022-11-20T02:57:17;13.15;;;9.02;;
52015;SDS011;38032;53.326;6.472;2022-11-20T02:59:43;13.63;;;9.15;;
52015;SDS011;38032;53.326;6.472;2022-11-20T03:02:09;15.63;;;10.02;;
52015;SDS011;38032;53.326;6.472;2022-11-20T03:04:35;15.40;;;10.43;;
52015;SDS011;38032;53.326;6.472;2022-11-20T03:07:01;14.98;;;9.90;;
52015;SDS011;38032;53.326;6.472;2022-11-20T03:09:27;14.77;;;10.20;;
52015;SDS011;38032;53.326;6.472;2022-11-20T03:11:53;15.57;;;10.20;;
52015;SDS011;38032;53.326;6.472;2022-11-20T03:14:18;14.43;;;9.80;;
52015;SDS011;38032;53.326;6.472;2022-11-20T03:16:44;13.07;;;9.15;;
52015;SDS011;38032;53.326;6.472;2022-11-20T03:19:11;14.13;;;10.00;;
52015;SDS011;38032;53.326;6.472;2022-11-20T03:21:37;15.85;;;10.30;;
52015;SDS011;38032;53.326;6.472;2022-11-20T03:24:03;15.00;;;10.00;;
52015;SDS011;38032;53.326;6.472;2022-11-20T03:26:29;12.90;;;9.00;;
52015;SDS011;38032;53.326;6.472;2022-11-20T03:28:56;18.23;;;10.23;;
52015;SDS011;38032;53.326;6.472;2022-11-20T03:31:24;13.80;;;9.10;;
52015;SDS011;38032;53.326;6.472;2022-11-20T03:33:52;14.93;;;9.77;;
52015;SDS011;38032;53.326;6.472;2022-11-20T03:36:19;18.30;;;9.18;;
52015;SDS011;38032;53.326;6.472;2022-11-20T03:38:45;13.27;;;9.40;;
52015;SDS011;38032;53.326;6.472;2022-11-20T03:41:14;14.00;;;9.05;;
52015;SDS011;38032;53.326;6.472;2022-11-20T03:43:46;13.93;;;9.13;;
52015;SDS011;38032;53.326;6.472;2022-11-20T03:46:13;14.57;;;8.90;;
52015;SDS011;38032;53.326;6.472;2022-11-20T03:48:39;14.52;;;9.45;;
52015;SDS011;38032;53.326;6.472;2022-11-20T03:51:07;13.35;;;8.93;;
52015;SDS011;38032;53.326;6.472;2022-11-20T03:53:38;13.95;;;9.10;;
52015;SDS011;38032;53.326;6.472;2022-11-20T03:56:05;13.65;;;8.82;;
52015;SDS011;38032;53.326;6.472;2022-11-20T03:58:32;15.63;;;9.60;;
52015;SDS011;38032;53.326;6.472;2022-11-20T04:01:05;13.15;;;8.60;;
52015;SDS011;38032;53.326;6.472;2022-11-20T04:03:32;14.13;;;9.27;;
52015;SDS011;38032;53.326;6.472;2022-11-20T04:06:02;13.25;;;8.65;;
52015;SDS011;38032;53.326;6.472;2022-11-20T04:08:31;13.50;;;8.90;;
52015;SDS011;38032;53.326;6.472;2022-11-20T04:10:56;13.25;;;8.80;;
52015;SDS011;38032;53.326;6.472;2022-11-20T04:13:33;15.18;;;9.02;;
52015;SDS011;38032;53.326;6.472;2022-11-20T04:15:59;13.57;;;8.63;;
52015;SDS011;38032;53.326;6.472;2022-11-20T04:18:25;12.07;;;8.65;;
52015;SDS011;38032;53.326;6.472;2022-11-20T04:20:51;13.60;;;9.20;;
52015;SDS011;38032;53.326;6.472;2022-11-20T04:23:17;12.95;;;8.65;;
52015;SDS011;38032;53.326;6.472;2022-11-20T04:25:43;13.07;;;8.52;;
52015;SDS011;38032;53.326;6.472;2022-11-20T04:28:09;12.43;;;8.43;;
52015;SDS011;38032;53.326;6.472;2022-11-20T04:30:34;14.45;;;8.63;;
52015;SDS011;38032;53.326;6.472;2022-11-20T04:33:00;13.55;;;8.52;;
52015;SDS011;38032;53.326;6.472;2022-11-20T04:35:26;12.77;;;8.95;;
52015;SDS011;38032;53.326;6.472;2022-11-20T04:37:52;12.40;;;8.10;;
52015;SDS011;38032;53.326;6.472;2022-11-20T04:40:18;12.95;;;8.68;;
52015;SDS011;38032;53.326;6.472;2022-11-20T04:42:43;11.45;;;8.27;;
52015;SDS011;38032;53.326;6.472;2022-11-20T04:45:09;12.50;;;8.13;;
52015;SDS011;38032;53.326;6.472;2022-11-20T04:47:35;13.45;;;8.82;;
52015;SDS011;38032;53.326;6.472;2022-11-20T04:50:01;13.07;;;8.60;;
52015;SDS011;38032;53.326;6.472;2022-11-20T04:52:27;13.05;;;8.18;;
52015;SDS011;38032;53.326;6.472;2022-11-20T04:54:53;12.45;;;8.95;;
52015;SDS011;38032;53.326;6.472;2022-11-20T04:57:19;13.57;;;8.35;;
52015;SDS011;38032;53.326;6.472;2022-11-20T04:59:45;12.95;;;8.60;;
52015;SDS011;38032;53.326;6.472;2022-11-20T05:02:11;13.48;;;8.85;;
52015;SDS011;38032;53.326;6.472;2022-11-20T05:04:37;14.35;;;9.05;;
52015;SDS011;38032;53.326;6.472;2022-11-20T05:07:03;13.02;;;8.60;;
52015;SDS011;38032;53.326;6.472;2022-11-20T05:09:29;13.55;;;8.50;;
52015;SDS011;38032;53.326;6.472;2022-11-20T05:11:55;13.02;;;7.80;;
52015;SDS011;38032;53.326;6.472;2022-11-20T05:14:21;12.20;;;8.45;;
52015;SDS011;38032;53.326;6.472;2022-11-20T05:16:46;12.48;;;8.65;;
52015;SDS011;38032;53.326;6.472;2022-11-20T05:19:12;11.88;;;8.68;;
52015;SDS011;38032;53.326;6.472;2022-11-20T05:21:38;12.13;;;8.38;;
52015;SDS011;38032;53.326;6.472;2022-11-20T05:24:04;13.73;;;8.85;;
52015;SDS011;38032;53.326;6.472;2022-11-20T05:26:30;13.43;;;9.45;;
52015;SDS011;38032;53.326;6.472;2022-11-20T05:28:56;15.23;;;8.68;;
52015;SDS011;38032;53.326;6.472;2022-11-20T05:31:23;13.65;;;8.20;;
52015;SDS011;38032;53.326;6.472;2022-11-20T05:33:50;12.48;;;8.15;;
52015;SDS011;38032;53.326;6.472;2022-11-20T05:36:16;12.68;;;8.40;;
52015;SDS011;38032;53.326;6.472;2022-11-20T05:38:43;11.38;;;8.00;;
52015;SDS011;38032;53.326;6.472;2022-11-20T05:41:10;13.55;;;8.45;;
52015;SDS011;38032;53.326;6.472;2022-11-20T05:43:42;13.80;;;8.13;;
52015;SDS011;38032;53.326;6.472;2022-11-20T05:46:10;13.93;;;8.35;;
52015;SDS011;38032;53.326;6.472;2022-11-20T05:48:38;12.52;;;8.40;;
52015;SDS011;38032;53.326;6.472;2022-11-20T05:51:05;12.45;;;8.18;;
52015;SDS011;38032;53.326;6.472;2022-11-20T05:53:33;12.85;;;8.43;;
52015;SDS011;38032;53.326;6.472;2022-11-20T05:56:00;10.82;;;7.30;;
52015;SDS011;38032;53.326;6.472;2022-11-20T05:58:30;12.10;;;7.80;;
52015;SDS011;38032;53.326;6.472;2022-11-20T06:01:05;12.70;;;8.55;;
52015;SDS011;38032;53.326;6.472;2022-11-20T06:03:33;11.85;;;8.45;;
52015;SDS011;38032;53.326;6.472;2022-11-20T06:05:59;13.52;;;8.07;;
52015;SDS011;38032;53.326;6.472;2022-11-20T06:08:25;12.27;;;8.23;;
52015;SDS011;38032;53.326;6.472;2022-11-20T06:10:51;13.40;;;8.60;;
52015;SDS011;38032;53.326;6.472;2022-11-20T06:13:17;13.55;;;8.63;;
52015;SDS011;38032;53.326;6.472;2022-11-20T06:15:47;12.27;;;8.20;;
52015;SDS011;38032;53.326;6.472;2022-11-20T06:18:14;12.15;;;8.15;;
52015;SDS011;38032;53.326;6.472;2022-11-20T06:20:40;13.18;;;8.52;;
52015;SDS011;38032;53.326;6.472;2022-11-20T06:23:06;12.65;;;8.43;;
52015;SDS011;38032;53.326;6.472;2022-11-20T06:25:32;12.65;;;8.35;;
52015;SDS011;38032;53.326;6.472;2022-11-20T06:27:58;13.00;;;7.97;;
52015;SDS011;38032;53.326;6.472;2022-11-20T06:30:24;12.57;;;8.43;;
52015;SDS011;38032;53.326;6.472;2022-11-20T06:32:49;13.40;;;8.38;;
52015;SDS011;38032;53.326;6.472;2022-11-20T06:35:16;12.88;;;8.25;;
52015;SDS011;38032;53.326;6.472;2022-11-20T06:37:42;11.55;;;7.78;;
52015;SDS011;38032;53.326;6.472;2022-11-20T06:40:08;12.45;;;8.57;;
52015;SDS011;38032;53.326;6.472;2022-11-20T06:42:35;12.15;;;7.65;;
52015;SDS011;38032;53.326;6.472;2022-11-20T06:45:01;12.88;;;8.02;;
52015;SDS011;38032;53.326;6.472;2022-11-20T06:47:26;12.55;;;8.43;;
52015;SDS011;38032;53.326;6.472;2022-11-20T06:49:52;12.65;;;8.23;;
52015;SDS011;38032;53.326;6.472;2022-11-20T06:52:18;12.43;;;7.80;;
52015;SDS011;38032;53.326;6.472;2022-11-20T06:54:44;16.40;;;7.97;;
52015;SDS011;38032;53.326;6.472;2022-11-20T06:57:10;12.18;;;7.90;;
52015;SDS011;38032;53.326;6.472;2022-11-20T06:59:36;13.15;;;8.77;;
52015;SDS011;38032;53.326;6.472;2022-11-20T07:02:02;14.65;;;8.73;;
52015;SDS011;38032;53.326;6.472;2022-11-20T07:04:27;11.98;;;8.38;;
52015;SDS011;38032;53.326;6.472;2022-11-20T07:06:53;11.25;;;7.88;;
52015;SDS011;38032;53.326;6.472;2022-11-20T07:09:19;11.60;;;7.85;;
52015;SDS011;38032;53.326;6.472;2022-11-20T07:11:45;13.45;;;8.40;;
52015;SDS011;38032;53.326;6.472;2022-11-20T07:14:11;11.80;;;7.82;;
52015;SDS011;38032;53.326;6.472;2022-11-20T07:16:37;11.73;;;7.72;;
52015;SDS011;38032;53.326;6.472;2022-11-20T07:19:04;12.23;;;7.75;;
52015;SDS011;38032;53.326;6.472;2022-11-20T07:21:29;12.85;;;8.15;;
52015;SDS011;38032;53.326;6.472;2022-11-20T07:23:55;12.85;;;8.35;;
52015;SDS011;38032;53.326;6.472;2022-11-20T07:26:22;13.07;;;8.48;;
52015;SDS011;38032;53.326;6.472;2022-11-20T07:28:48;13.18;;;8.02;;
52015;SDS011;38032;53.326;6.472;2022-11-20T07:31:13;11.50;;;8.18;;
52015;SDS011;38032;53.326;6.472;2022-11-20T07:33:39;10.95;;;7.90;;
52015;SDS011;38032;53.326;6.472;2022-11-20T07:36:05;13.15;;;8.20;;
52015;SDS011;38032;53.326;6.472;2022-11-20T07:38:31;12.45;;;8.40;;
52015;SDS011;38032;53.326;6.472;2022-11-20T07:40:57;15.45;;;9.70;;
52015;SDS011;38032;53.326;6.472;2022-11-20T07:43:23;15.48;;;9.93;;
52015;SDS011;38032;53.326;6.472;2022-11-20T07:45:50;15.75;;;8.98;;
52015;SDS011;38032;53.326;6.472;2022-11-20T07:48:16;12.45;;;8.63;;
52015;SDS011;38032;53.326;6.472;2022-11-20T07:50:42;14.50;;;8.73;;
52015;SDS011;38032;53.326;6.472;2022-11-20T07:53:08;13.75;;;9.00;;
52015;SDS011;38032;53.326;6.472;2022-11-20T07:55:33;13.65;;;8.45;;
52015;SDS011;38032;53.326;6.472;2022-11-20T07:57:59;13.73;;;9.07;;
52015;SDS011;38032;53.326;6.472;2022-11-20T08:00:25;16.05;;;9.05;;
52015;SDS011;38032;53.326;6.472;2022-11-20T08:02:51;13.05;;;8.77;;
52015;SDS011;38032;53.326;6.472;2022-11-20T08:05:17;13.65;;;8.93;;
52015;SDS011;38032;53.326;6.472;2022-11-20T08:07:43;13.27;;;8.55;;
52015;SDS011;38032;53.326;6.472;2022-11-20T08:10:10;12.48;;;8.85;;
52015;SDS011;38032;53.326;6.472;2022-11-20T08:12:45;14.50;;;9.23;;
52015;SDS011;38032;53.326;6.472;2022-11-20T08:15:30;13.18;;;9.00;;
52015;SDS011;38032;53.326;6.472;2022-11-20T08:18:01;12.45;;;8.38;;
52015;SDS011;38032;53.326;6.472;2022-11-20T08:20:29;15.05;;;8.98;;
52015;SDS011;38032;53.326;6.472;2022-11-20T08:22:58;14.32;;;8.70;;
52015;SDS011;38032;53.326;6.472;2022-11-20T08:25:26;14.13;;;9.00;;
52015;SDS011;38032;53.326;6.472;2022-11-20T08:27:53;14.38;;;9.00;;
52015;SDS011;38032;53.326;6.472;2022-11-20T08:30:19;13.82;;;9.18;;
52015;SDS011;38032;53.326;6.472;2022-11-20T08:32:45;13.35;;;9.45;;
52015;SDS011;38032;53.326;6.472;2022-11-20T08:35:10;13.77;;;9.18;;
52015;SDS011;38032;53.326;6.472;2022-11-20T08:37:36;12.23;;;8.63;;
52015;SDS011;38032;53.326;6.472;2022-11-20T08:40:08;13.43;;;9.18;;
52015;SDS011;38032;53.326;6.472;2022-11-20T08:42:35;14.13;;;9.05;;
52015;SDS011;38032;53.326;6.472;2022-11-20T08:45:01;14.00;;;8.77;;
52015;SDS011;38032;53.326;6.472;2022-11-20T08:47:27;13.93;;;8.88;;
52015;SDS011;38032;53.326;6.472;2022-11-20T08:49:52;14.43;;;9.57;;
52015;SDS011;38032;53.326;6.472;2022-11-20T08:52:18;13.32;;;9.23;;
52015;SDS011;38032;53.326;6.472;2022-11-20T08:54:44;12.13;;;8.35;;
52015;SDS011;38032;53.326;6.472;2022-11-20T08:57:10;13.27;;;8.70;;
52015;SDS011;38032;53.326;6.472;2022-11-20T08:59:36;12.48;;;8.55;;
52015;SDS011;38032;53.326;6.472;2022-11-20T09:02:02;12.93;;;8.80;;
52015;SDS011;38032;53.326;6.472;2022-11-20T09:04:28;13.60;;;9.18;;
52015;SDS011;38032;53.326;6.472;2022-11-20T09:06:54;12.00;;;8.52;;
52015;SDS011;38032;53.326;6.472;2022-11-20T09:09:20;11.75;;;8.27;;
52015;SDS011;38032;53.326;6.472;2022-11-20T09:11:45;12.43;;;7.85;;
52015;SDS011;38032;53.326;6.472;2022-11-20T09:14:11;13.43;;;8.55;;
52015;SDS011;38032;53.326;6.472;2022-11-20T09:16:37;14.18;;;9.20;;
52015;SDS011;38032;53.326;6.472;2022-11-20T09:19:03;12.25;;;8.88;;
52015;SDS011;38032;53.326;6.472;2022-11-20T09:21:29;14.23;;;8.70;;
52015;SDS011;38032;53.326;6.472;2022-11-20T09:23:55;12.35;;;8.27;;
52015;SDS011;38032;53.326;6.472;2022-11-20T09:26:20;13.05;;;8.18;;
52015;SDS011;38032;53.326;6.472;2022-11-20T09:28:46;12.93;;;8.65;;
52015;SDS011;38032;53.326;6.472;2022-11-20T09:31:22;12.50;;;8.70;;
52015;SDS011;38032;53.326;6.472;2022-11-20T09:33:50;13.52;;;8.90;;
52015;SDS011;38032;53.326;6.472;2022-11-20T09:36:17;13.98;;;9.05;;
52015;SDS011;38032;53.326;6.472;2022-11-20T09:38:44;13.95;;;8.98;;
52015;SDS011;38032;53.326;6.472;2022-11-20T09:41:38;11.63;;;8.38;;
52015;SDS011;38032;53.326;6.472;2022-11-20T09:47:14;12.23;;;8.43;;
52015;SDS011;38032;53.326;6.472;2022-11-20T09:49:59;11.73;;;8.10;;
52015;SDS011;38032;53.326;6.472;2022-11-20T09:52:44;11.53;;;7.90;;
52015;SDS011;38032;53.326;6.472;2022-11-20T09:55:29;11.90;;;8.60;;
52015;SDS011;38032;53.326;6.472;2022-11-20T09:57:56;12.45;;;8.45;;
52015;SDS011;38032;53.326;6.472;2022-11-20T10:00:24;12.15;;;7.80;;
52015;SDS011;38032;53.326;6.472;2022-11-20T10:02:55;14.73;;;8.80;;
52015;SDS011;38032;53.326;6.472;2022-11-20T10:05:27;11.93;;;8.15;;
52015;SDS011;38032;53.326;6.472;2022-11-20T10:10:46;12.70;;;8.57;;
52015;SDS011;38032;53.326;6.472;2022-11-20T10:13:30;11.80;;;8.00;;
52015;SDS011;38032;53.326;6.472;2022-11-20T10:16:11;12.52;;;8.32;;
52015;SDS011;38032;53.326;6.472;2022-11-20T10:24:21;11.40;;;8.00;;
52015;SDS011;38032;53.326;6.472;2022-11-20T10:27:02;11.80;;;8.52;;
52015;SDS011;38032;53.326;6.472;2022-11-20T10:29:38;12.55;;;8.35;;
52015;SDS011;38032;53.326;6.472;2022-11-20T10:32:10;11.88;;;8.13;;
52015;SDS011;38032;53.326;6.472;2022-11-20T10:34:49;11.98;;;8.50;;
52015;SDS011;38032;53.326;6.472;2022-11-20T10:37:22;11.77;;;7.90;;
52015;SDS011;38032;53.326;6.472;2022-11-20T10:42:29;12.32;;;8.57;;
52015;SDS011;38032;53.326;6.472;2022-11-20T10:45:03;12.85;;;8.55;;
52015;SDS011;38032;53.326;6.472;2022-11-20T10:47:42;12.75;;;8.65;;
52015;SDS011;38032;53.326;6.472;2022-11-20T10:50:09;13.82;;;9.38;;
52015;SDS011;38032;53.326;6.472;2022-11-20T10:55:39;11.05;;;8.10;;
52015;SDS011;38032;53.326;6.472;2022-11-20T10:58:13;12.95;;;9.25;;
52015;SDS011;38032;53.326;6.472;2022-11-20T11:00:39;13.48;;;8.82;;
52015;SDS011;38032;53.326;6.472;2022-11-20T11:03:22;11.90;;;8.35;;
52015;SDS011;38032;53.326;6.472;2022-11-20T11:05:59;13.75;;;8.80;;
52015;SDS011;38032;53.326;6.472;2022-11-20T11:08:35;12.95;;;8.77;;
52015;SDS011;38032;53.326;6.472;2022-11-20T11:11:15;12.80;;;8.60;;
52015;SDS011;38032;53.326;6.472;2022-11-20T11:13:43;12.55;;;8.88;;
52015;SDS011;38032;53.326;6.472;2022-11-20T11:16:21;12.50;;;8.80;;
52015;SDS011;38032;53.326;6.472;2022-11-20T11:18:49;12.43;;;8.25;;
52015;SDS011;38032;53.326;6.472;2022-11-20T11:21:29;11.60;;;8.00;;
52015;SDS011;38032;53.326;6.472;2022-11-20T11:27:01;12.43;;;8.15;;
52015;SDS011;38032;53.326;6.472;2022-11-20T11:29:32;10.85;;;7.85;;
52015;SDS011;38032;53.326;6.472;2022-11-20T11:32:04;11.85;;;7.93;;
52015;SDS011;38032;53.326;6.472;2022-11-20T11:34:32;11.15;;;8.05;;
52015;SDS011;38032;53.326;6.472;2022-11-20T11:36:59;10.70;;;8.02;;
52015;SDS011;38032;53.326;6.472;2022-11-20T11:39:28;10.65;;;7.50;;
52015;SDS011;38032;53.326;6.472;2022-11-20T11:41:56;11.27;;;7.72;;
52015;SDS011;38032;53.326;6.472;2022-11-20T11:44:26;10.23;;;7.55;;
52015;SDS011;38032;53.326;6.472;2022-11-20T11:47:25;9.20;;;7.13;;
52015;SDS011;38032;53.326;6.472;2022-11-20T11:52:41;9.88;;;7.32;;
52015;SDS011;38032;53.326;6.472;2022-11-20T11:55:14;11.25;;;7.65;;
52015;SDS011;38032;53.326;6.472;2022-11-20T11:57:49;11.45;;;8.00;;
52015;SDS011;38032;53.326;6.472;2022-11-20T12:00:22;11.15;;;7.75;;
52015;SDS011;38032;53.326;6.472;2022-11-20T12:02:52;11.50;;;8.23;;
52015;SDS011;38032;53.326;6.472;2022-11-20T12:05:35;11.48;;;7.90;;
52015;SDS011;38032;53.326;6.472;2022-11-20T12:08:06;13.88;;;8.40;;
52015;SDS011;38032;53.326;6.472;2022-11-20T12:10:42;10.57;;;7.03;;
52015;SDS011;38032;53.326;6.472;2022-11-20T12:13:31;11.60;;;7.78;;
52015;SDS011;38032;53.326;6.472;2022-11-20T12:16:04;11.13;;;7.90;;
52015;SDS011;38032;53.326;6.472;2022-11-20T12:18:30;11.68;;;7.60;;
52015;SDS011;38032;53.326;6.472;2022-11-20T12:21:02;10.10;;;7.40;;
52015;SDS011;38032;53.326;6.472;2022-11-20T12:23:53;10.57;;;7.32;;
52015;SDS011;38032;53.326;6.472;2022-11-20T12:26:35;9.20;;;6.57;;
52015;SDS011;38032;53.326;6.472;2022-11-20T12:29:21;9.13;;;6.50;;
52015;SDS011;38032;53.326;6.472;2022-11-20T12:32:20;8.50;;;6.47;;
52015;SDS011;38032;53.326;6.472;2022-11-20T12:34:52;11.98;;;7.28;;
52015;SDS011;38032;53.326;6.472;2022-11-20T12:37:26;11.20;;;7.35;;
52015;SDS011;38032;53.326;6.472;2022-11-20T12:43:01;10.00;;;7.30;;
52015;SDS011;38032;53.326;6.472;2022-11-20T12:45:54;10.65;;;6.55;;
52015;SDS011;38032;53.326;6.472;2022-11-20T12:48:31;10.20;;;6.97;;
52015;SDS011;38032;53.326;6.472;2022-11-20T12:51:09;10.10;;;6.80;;
52015;SDS011;38032;53.326;6.472;2022-11-20T12:56:40;8.68;;;6.10;;
52015;SDS011;38032;53.326;6.472;2022-11-20T13:02:05;8.27;;;5.47;;
52015;SDS011;38032;53.326;6.472;2022-11-20T13:07:43;6.70;;;4.32;;
52015;SDS011;38032;53.326;6.472;2022-11-20T13:10:14;5.43;;;4.10;;
52015;SDS011;38032;53.326;6.472;2022-11-20T13:12:51;6.65;;;3.88;;
52015;SDS011;38032;53.326;6.472;2022-11-20T13:15:34;6.20;;;4.20;;
52015;SDS011;38032;53.326;6.472;2022-11-20T13:18:08;5.50;;;4.30;;
52015;SDS011;38032;53.326;6.472;2022-11-20T13:20:36;7.15;;;4.57;;
52015;SDS011;38032;53.326;6.472;2022-11-20T13:23:10;6.22;;;4.85;;
52015;SDS011;38032;53.326;6.472;2022-11-20T13:25:47;6.63;;;4.68;;
52015;SDS011;38032;53.326;6.472;2022-11-20T13:30:48;6.60;;;4.60;;
52015;SDS011;38032;53.326;6.472;2022-11-20T13:33:27;6.57;;;4.72;;
52015;SDS011;38032;53.326;6.472;2022-11-20T13:35:57;6.47;;;4.68;;
52015;SDS011;38032;53.326;6.472;2022-11-20T13:38:26;7.32;;;5.00;;
52015;SDS011;38032;53.326;6.472;2022-11-20T13:40:54;6.93;;;4.70;;
52015;SDS011;38032;53.326;6.472;2022-11-20T13:43:26;7.25;;;5.50;;
52015;SDS011;38032;53.326;6.472;2022-11-20T13:46:00;6.80;;;5.35;;
52015;SDS011;38032;53.326;6.472;2022-11-20T13:48:30;7.00;;;5.00;;
52015;SDS011;38032;53.326;6.472;2022-11-20T13:51:22;6.43;;;4.82;;
52015;SDS011;38032;53.326;6.472;2022-11-20T13:54:00;6.38;;;4.53;;
52015;SDS011;38032;53.326;6.472;2022-11-20T13:59:08;6.53;;;4.70;;
52015;SDS011;38032;53.326;6.472;2022-11-20T14:01:51;6.70;;;4.70;;
52015;SDS011;38032;53.326;6.472;2022-11-20T14:04:20;7.15;;;5.00;;
52015;SDS011;38032;53.326;6.472;2022-11-20T14:06:52;6.82;;;4.85;;
52015;SDS011;38032;53.326;6.472;2022-11-20T14:09:28;7.18;;;4.70;;
52015;SDS011;38032;53.326;6.472;2022-11-20T14:11:56;8.98;;;4.85;;
52015;SDS011;38032;53.326;6.472;2022-11-20T14:14:23;6.72;;;4.95;;
52015;SDS011;38032;53.326;6.472;2022-11-20T14:16:51;7.80;;;4.90;;
52015;SDS011;38032;53.326;6.472;2022-11-20T14:21:52;8.68;;;5.05;;
52015;SDS011;38032;53.326;6.472;2022-11-20T14:24:31;7.25;;;5.32;;
52015;SDS011;38032;53.326;6.472;2022-11-20T14:26:57;6.93;;;5.20;;
52015;SDS011;38032;53.326;6.472;2022-11-20T14:29:27;8.57;;;5.22;;
52015;SDS011;38032;53.326;6.472;2022-11-20T14:31:58;7.00;;;5.20;;
52015;SDS011;38032;53.326;6.472;2022-11-20T14:34:25;7.45;;;4.70;;
52015;SDS011;38032;53.326;6.472;2022-11-20T14:36:56;7.82;;;5.65;;
52015;SDS011;38032;53.326;6.472;2022-11-20T14:39:26;7.70;;;5.57;;
52015;SDS011;38032;53.326;6.472;2022-11-20T14:41:54;8.13;;;5.50;;
52015;SDS011;38032;53.326;6.472;2022-11-20T14:44:23;7.68;;;5.20;;
52015;SDS011;38032;53.326;6.472;2022-11-20T14:46:53;9.10;;;5.85;;
52015;SDS011;38032;53.326;6.472;2022-11-20T14:49:20;8.05;;;5.72;;
52015;SDS011;38032;53.326;6.472;2022-11-20T14:51:46;7.50;;;5.68;;
52015;SDS011;38032;53.326;6.472;2022-11-20T14:54:23;8.18;;;5.65;;
52015;SDS011;38032;53.326;6.472;2022-11-20T14:56:59;7.57;;;5.30;;
52015;SDS011;38032;53.326;6.472;2022-11-20T14:59:27;8.15;;;5.53;;
52015;SDS011;38032;53.326;6.472;2022-11-20T15:02:00;9.52;;;5.93;;
52015;SDS011;38032;53.326;6.472;2022-11-20T15:04:29;8.85;;;5.55;;
52015;SDS011;38032;53.326;6.472;2022-11-20T15:06:55;8.00;;;5.43;;
52015;SDS011;38032;53.326;6.472;2022-11-20T15:09:24;8.60;;;5.65;;
52015;SDS011;38032;53.326;6.472;2022-11-20T15:11:53;7.53;;;5.43;;
52015;SDS011;38032;53.326;6.472;2022-11-20T15:14:22;9.85;;;5.97;;
52015;SDS011;38032;53.326;6.472;2022-11-20T15:16:49;8.73;;;6.15;;
52015;SDS011;38032;53.326;6.472;2022-11-20T15:19:17;8.02;;;5.53;;
52015;SDS011;38032;53.326;6.472;2022-11-20T15:21:46;8.30;;;5.68;;
52015;SDS011;38032;53.326;6.472;2022-11-20T15:24:12;7.75;;;5.40;;
52015;SDS011;38032;53.326;6.472;2022-11-20T15:26:38;9.68;;;6.05;;
52015;SDS011;38032;53.326;6.472;2022-11-20T15:29:07;8.13;;;5.53;;
52015;SDS011;38032;53.326;6.472;2022-11-20T15:31:36;9.40;;;5.95;;
52015;SDS011;38032;53.326;6.472;2022-11-20T15:34:02;9.00;;;5.75;;
52015;SDS011;38032;53.326;6.472;2022-11-20T15:36:31;8.13;;;5.95;;
52015;SDS011;38032;53.326;6.472;2022-11-20T15:38:57;9.82;;;5.35;;